sensor_id;sensor_type;location;lat;lon;timestamp;pressure;altitude;pressure_sealevel;temperature
79148;BMP280;68562;51.600;6.524;2023-08-20T00:00:01;1019.6;;;24.6
79148;BMP280;68562;51.600;6.524;2023-08-20T00:05:01;1019.6;;;24.6
79148;BMP280;68562;51.600;6.524;2023-08-20T00:10:01;1019.5;;;24.5
79148;BMP280;68562;51.600;6.524;2023-08-20T00:15:01;1019.5;;;24.5
79148;BMP280;68562;51.600;6.524;2023-08-20T00:20:01;1019.4;;;24.5
79148;BMP280;68562;51.600;6.524;2023-08-20T00:25:00;1019.3;;;24.5
79148;BMP280;68562;51.600;6.524;2023-08-20T00:30:00;1019.5;;;24.5
79148;BMP280;68562;51.600;6.524;2023-08-20T00:35:00;1019.5;;;24.5
79148;BMP280;68562;51.600;6.524;2023-08-20T00:40:00;1019.4;;;24.4
79148;BMP280;68562;51.600;6.524;2023-08-20T00:45:01;1019.5;;;24.4
79148;BMP280;68562;51.600;6.524;2023-08-20T00:50:01;1019.6;;;24.4
79148;BMP280;68562;51.600;6.524;2023-08-20T00:55:06;1019.6;;;24.3
79148;BMP280;68562;51.600;6.524;2023-08-20T01:00:00;1019.7;;;24.3
79148;BMP280;68562;51.600;6.524;2023-08-20T01:05:01;1019.8;;;24.3
79148;BMP280;68562;51.600;6.524;2023-08-20T01:10:06;1019.7;;;24.2
79148;BMP280;68562;51.600;6.524;2023-08-20T01:15:00;1019.7;;;24.2
79148;BMP280;68562;51.600;6.524;2023-08-20T01:20:00;1019.7;;;24.2
79148;BMP280;68562;51.600;6.524;2023-08-20T01:25:11;1019.7;;;24.1
79148;BMP280;68562;51.600;6.524;2023-08-20T01:30:01;1019.6;;;24.1
79148;BMP280;68562;51.600;6.524;2023-08-20T01:35:00;1019.6;;;24.1
79148;BMP280;68562;51.600;6.524;2023-08-20T01:40:00;1019.8;;;24.0
79148;BMP280;68562;51.600;6.524;2023-08-20T01:45:00;1019.9;;;23.9
79148;BMP280;68562;51.600;6.524;2023-08-20T01:50:00;1019.9;;;23.9
79148;BMP280;68562;51.600;6.524;2023-08-20T01:55:00;1020.0;;;23.9
79148;BMP280;68562;51.600;6.524;2023-08-20T02:00:00;1020.1;;;23.9
79148;BMP280;68562;51.600;6.524;2023-08-20T02:05:00;1020.2;;;23.9
79148;BMP280;68562;51.600;6.524;2023-08-20T02:10:00;1020.2;;;24.0
79148;BMP280;68562;51.600;6.524;2023-08-20T02:15:00;1020.3;;;24.1
79148;BMP280;68562;51.600;6.524;2023-08-20T02:20:00;1020.4;;;24.2
79148;BMP280;68562;51.600;6.524;2023-08-20T02:25:00;1020.4;;;24.3
79148;BMP280;68562;51.600;6.524;2023-08-20T02:30:00;1020.3;;;24.4
79148;BMP280;68562;51.600;6.524;2023-08-20T02:35:00;1020.3;;;24.4
79148;BMP280;68562;51.600;6.524;2023-08-20T02:40:00;1020.3;;;24.6
79148;BMP280;68562;51.600;6.524;2023-08-20T02:45:00;1020.4;;;24.6
79148;BMP280;68562;51.600;6.524;2023-08-20T02:50:00;1020.4;;;24.7
79148;BMP280;68562;51.600;6.524;2023-08-20T02:55:00;1020.4;;;24.7
79148;BMP280;68562;51.600;6.524;2023-08-20T03:00:00;1020.4;;;24.7
79148;BMP280;68562;51.600;6.524;2023-08-20T03:05:00;1020.5;;;24.7
79148;BMP280;68562;51.600;6.524;2023-08-20T03:10:00;1020.5;;;24.7
79148;BMP280;68562;51.600;6.524;2023-08-20T03:15:00;1020.5;;;24.7
79148;BMP280;68562;51.600;6.524;2023-08-20T03:20:00;1020.4;;;24.7
79148;BMP280;68562;51.600;6.524;2023-08-20T03:25:00;1020.4;;;24.6
79148;BMP280;68562;51.600;6.524;2023-08-20T03:30:00;1020.3;;;24.6
79148;BMP280;68562;51.600;6.524;2023-08-20T03:35:00;1020.3;;;24.6
79148;BMP280;68562;51.600;6.524;2023-08-20T03:40:00;1020.3;;;24.5
79148;BMP280;68562;51.600;6.524;2023-08-20T03:45:00;1020.3;;;24.5
79148;BMP280;68562;51.600;6.524;2023-08-20T04:00:00;1020.3;;;24.3
79148;BMP280;68562;51.600;6.524;2023-08-20T04:05:00;1020.4;;;24.2
79148;BMP280;68562;51.600;6.524;2023-08-20T04:10:00;1020.3;;;24.2
79148;BMP280;68562;51.600;6.524;2023-08-20T04:15:00;1020.4;;;24.1
79148;BMP280;68562;51.600;6.524;2023-08-20T04:20:00;1020.4;;;24.0
79148;BMP280;68562;51.600;6.524;2023-08-20T04:25:00;1020.4;;;24.0
79148;BMP280;68562;51.600;6.524;2023-08-20T04:30:00;1020.4;;;23.9
79148;BMP280;68562;51.600;6.524;2023-08-20T04:35:00;1020.3;;;23.9
79148;BMP280;68562;51.600;6.524;2023-08-20T04:40:00;1020.3;;;23.8
79148;BMP280;68562;51.600;6.524;2023-08-20T04:45:00;1020.4;;;23.8
79148;BMP280;68562;51.600;6.524;2023-08-20T04:50:00;1020.5;;;23.7
79148;BMP280;68562;51.600;6.524;2023-08-20T04:55:01;1020.5;;;23.7
79148;BMP280;68562;51.600;6.524;2023-08-20T05:00:00;1020.5;;;23.7
79148;BMP280;68562;51.600;6.524;2023-08-20T05:05:01;1020.5;;;23.7
79148;BMP280;68562;51.600;6.524;2023-08-20T05:10:00;1020.6;;;23.7
79148;BMP280;68562;51.600;6.524;2023-08-20T05:15:00;1020.6;;;23.7
79148;BMP280;68562;51.600;6.524;2023-08-20T05:20:00;1020.6;;;23.7
79148;BMP280;68562;51.600;6.524;2023-08-20T05:25:00;1020.5;;;23.8
79148;BMP280;68562;51.600;6.524;2023-08-20T05:30:00;1020.7;;;23.8
79148;BMP280;68562;51.600;6.524;2023-08-20T05:35:01;1020.7;;;23.9
79148;BMP280;68562;51.600;6.524;2023-08-20T05:40:00;1020.7;;;24.0
79148;BMP280;68562;51.600;6.524;2023-08-20T05:45:00;1020.7;;;24.1
79148;BMP280;68562;51.600;6.524;2023-08-20T05:50:00;1020.7;;;24.1
79148;BMP280;68562;51.600;6.524;2023-08-20T05:55:00;1020.7;;;24.2
79148;BMP280;68562;51.600;6.524;2023-08-20T06:00:00;1020.8;;;24.3
79148;BMP280;68562;51.600;6.524;2023-08-20T06:05:00;1020.9;;;24.5
79148;BMP280;68562;51.600;6.524;2023-08-20T06:10:00;1020.9;;;24.6
79148;BMP280;68562;51.600;6.524;2023-08-20T06:15:00;1020.9;;;24.8
79148;BMP280;68562;51.600;6.524;2023-08-20T06:20:00;1020.9;;;24.9
79148;BMP280;68562;51.600;6.524;2023-08-20T06:25:00;1020.9;;;25.1
79148;BMP280;68562;51.600;6.524;2023-08-20T06:30:00;1020.9;;;25.4
79148;BMP280;68562;51.600;6.524;2023-08-20T06:35:00;1020.8;;;25.7
79148;BMP280;68562;51.600;6.524;2023-08-20T06:40:00;1020.9;;;26.0
79148;BMP280;68562;51.600;6.524;2023-08-20T06:45:00;1020.8;;;26.4
79148;BMP280;68562;51.600;6.524;2023-08-20T06:50:01;1020.8;;;26.7
79148;BMP280;68562;51.600;6.524;2023-08-20T06:55:00;1020.9;;;27.0
79148;BMP280;68562;51.600;6.524;2023-08-20T07:00:00;1020.9;;;27.2
79148;BMP280;68562;51.600;6.524;2023-08-20T07:05:00;1020.9;;;27.5
79148;BMP280;68562;51.600;6.524;2023-08-20T07:10:00;1020.9;;;27.7
79148;BMP280;68562;51.600;6.524;2023-08-20T07:15:00;1020.9;;;28.1
79148;BMP280;68562;51.600;6.524;2023-08-20T07:20:00;1021.0;;;28.5
79148;BMP280;68562;51.600;6.524;2023-08-20T07:25:00;1021.1;;;28.8
79148;BMP280;68562;51.600;6.524;2023-08-20T07:30:00;1021.0;;;29.3
79148;BMP280;68562;51.600;6.524;2023-08-20T07:35:00;1021.0;;;29.7
79148;BMP280;68562;51.600;6.524;2023-08-20T07:40:00;1021.0;;;30.2
79148;BMP280;68562;51.600;6.524;2023-08-20T07:45:00;1021.0;;;30.6
79148;BMP280;68562;51.600;6.524;2023-08-20T07:50:00;1020.9;;;30.9
79148;BMP280;68562;51.600;6.524;2023-08-20T07:55:00;1020.9;;;31.2
79148;BMP280;68562;51.600;6.524;2023-08-20T08:00:00;1020.9;;;31.7
79148;BMP280;68562;51.600;6.524;2023-08-20T08:05:00;1020.9;;;32.2
79148;BMP280;68562;51.600;6.524;2023-08-20T08:10:00;1021.0;;;32.6
79148;BMP280;68562;51.600;6.524;2023-08-20T08:15:00;1021.0;;;32.9
79148;BMP280;68562;51.600;6.524;2023-08-20T08:20:00;1021.0;;;33.3
79148;BMP280;68562;51.600;6.524;2023-08-20T08:25:00;1021.0;;;33.8
79148;BMP280;68562;51.600;6.524;2023-08-20T08:30:00;1021.0;;;34.3
79148;BMP280;68562;51.600;6.524;2023-08-20T08:35:00;1021.1;;;34.9
79148;BMP280;68562;51.600;6.524;2023-08-20T08:40:00;1021.1;;;34.8
79148;BMP280;68562;51.600;6.524;2023-08-20T08:45:00;1021.1;;;34.6
79148;BMP280;68562;51.600;6.524;2023-08-20T08:50:00;1021.1;;;34.6
79148;BMP280;68562;51.600;6.524;2023-08-20T08:55:01;1021.2;;;34.9
79148;BMP280;68562;51.600;6.524;2023-08-20T09:00:00;1021.2;;;35.6
79148;BMP280;68562;51.600;6.524;2023-08-20T09:05:00;1021.2;;;36.3
79148;BMP280;68562;51.600;6.524;2023-08-20T09:10:00;1021.2;;;36.8
79148;BMP280;68562;51.600;6.524;2023-08-20T09:15:00;1021.2;;;37.0
79148;BMP280;68562;51.600;6.524;2023-08-20T09:20:00;1021.2;;;37.6
79148;BMP280;68562;51.600;6.524;2023-08-20T09:25:00;1021.2;;;37.9
79148;BMP280;68562;51.600;6.524;2023-08-20T09:30:00;1021.1;;;38.1
79148;BMP280;68562;51.600;6.524;2023-08-20T09:35:00;1021.2;;;38.4
79148;BMP280;68562;51.600;6.524;2023-08-20T09:40:00;1021.2;;;39.0
79148;BMP280;68562;51.600;6.524;2023-08-20T09:45:02;1021.2;;;39.2
79148;BMP280;68562;51.600;6.524;2023-08-20T09:50:01;1021.2;;;39.6
79148;BMP280;68562;51.600;6.524;2023-08-20T09:55:03;1021.2;;;39.8
79148;BMP280;68562;51.600;6.524;2023-08-20T10:00:01;1021.2;;;40.0
79148;BMP280;68562;51.600;6.524;2023-08-20T10:05:00;1021.3;;;40.4
79148;BMP280;68562;51.600;6.524;2023-08-20T10:10:02;1021.3;;;41.0
79148;BMP280;68562;51.600;6.524;2023-08-20T10:15:01;1021.2;;;41.1
79148;BMP280;68562;51.600;6.524;2023-08-20T10:20:02;1021.3;;;41.1
79148;BMP280;68562;51.600;6.524;2023-08-20T10:25:00;1021.3;;;41.7
79148;BMP280;68562;51.600;6.524;2023-08-20T10:30:01;1021.2;;;42.2
79148;BMP280;68562;51.600;6.524;2023-08-20T10:35:00;1021.3;;;42.5
79148;BMP280;68562;51.600;6.524;2023-08-20T10:40:00;1021.3;;;42.4
79148;BMP280;68562;51.600;6.524;2023-08-20T10:45:04;1021.3;;;41.8
79148;BMP280;68562;51.600;6.524;2023-08-20T10:50:00;1021.3;;;41.5
79148;BMP280;68562;51.600;6.524;2023-08-20T10:55:03;1021.3;;;41.6
79148;BMP280;68562;51.600;6.524;2023-08-20T11:00:02;1021.3;;;42.2
79148;BMP280;68562;51.600;6.524;2023-08-20T11:05:00;1021.4;;;42.6
79148;BMP280;68562;51.600;6.524;2023-08-20T11:10:00;1021.3;;;43.2
79148;BMP280;68562;51.600;6.524;2023-08-20T11:15:00;1021.3;;;43.8
79148;BMP280;68562;51.600;6.524;2023-08-20T11:20:00;1021.3;;;44.1
79148;BMP280;68562;51.600;6.524;2023-08-20T11:25:00;1021.3;;;44.7
79148;BMP280;68562;51.600;6.524;2023-08-20T11:30:00;1021.3;;;44.9
79148;BMP280;68562;51.600;6.524;2023-08-20T11:35:01;1021.3;;;44.6
79148;BMP280;68562;51.600;6.524;2023-08-20T11:40:00;1021.3;;;44.3
79148;BMP280;68562;51.600;6.524;2023-08-20T11:45:00;1021.3;;;44.6
79148;BMP280;68562;51.600;6.524;2023-08-20T11:50:02;1021.3;;;44.8
79148;BMP280;68562;51.600;6.524;2023-08-20T11:55:00;1021.3;;;45.1
79148;BMP280;68562;51.600;6.524;2023-08-20T12:00:01;1021.3;;;45.2
79148;BMP280;68562;51.600;6.524;2023-08-20T12:05:00;1021.2;;;45.5
79148;BMP280;68562;51.600;6.524;2023-08-20T12:15:00;1021.2;;;45.8
79148;BMP280;68562;51.600;6.524;2023-08-20T12:20:00;1021.1;;;45.8
79148;BMP280;68562;51.600;6.524;2023-08-20T12:25:00;1021.1;;;45.8
79148;BMP280;68562;51.600;6.524;2023-08-20T12:30:00;1021.0;;;46.3
79148;BMP280;68562;51.600;6.524;2023-08-20T12:35:00;1021.0;;;46.5
79148;BMP280;68562;51.600;6.524;2023-08-20T12:40:00;1020.9;;;46.4
79148;BMP280;68562;51.600;6.524;2023-08-20T12:45:00;1020.8;;;46.4
79148;BMP280;68562;51.600;6.524;2023-08-20T12:50:00;1020.8;;;46.5
79148;BMP280;68562;51.600;6.524;2023-08-20T12:55:00;1020.8;;;47.0
79148;BMP280;68562;51.600;6.524;2023-08-20T13:00:00;1020.7;;;47.3
79148;BMP280;68562;51.600;6.524;2023-08-20T13:05:00;1020.7;;;47.8
79148;BMP280;68562;51.600;6.524;2023-08-20T13:10:01;1020.6;;;48.1
79148;BMP280;68562;51.600;6.524;2023-08-20T13:15:00;1020.6;;;47.6
79148;BMP280;68562;51.600;6.524;2023-08-20T13:20:00;1020.6;;;47.5
79148;BMP280;68562;51.600;6.524;2023-08-20T13:25:00;1020.7;;;47.4
79148;BMP280;68562;51.600;6.524;2023-08-20T13:30:00;1020.7;;;47.8
79148;BMP280;68562;51.600;6.524;2023-08-20T13:35:00;1020.8;;;48.3
79148;BMP280;68562;51.600;6.524;2023-08-20T13:40:00;1020.8;;;48.8
79148;BMP280;68562;51.600;6.524;2023-08-20T13:45:00;1020.9;;;49.2
79148;BMP280;68562;51.600;6.524;2023-08-20T13:50:00;1020.9;;;49.5
79148;BMP280;68562;51.600;6.524;2023-08-20T13:55:00;1020.9;;;49.5
79148;BMP280;68562;51.600;6.524;2023-08-20T14:00:00;1020.9;;;49.2
79148;BMP280;68562;51.600;6.524;2023-08-20T14:05:00;1020.9;;;48.6
79148;BMP280;68562;51.600;6.524;2023-08-20T14:10:00;1020.9;;;48.5
79148;BMP280;68562;51.600;6.524;2023-08-20T14:15:00;1020.9;;;48.6
79148;BMP280;68562;51.600;6.524;2023-08-20T14:20:00;1020.9;;;48.7
79148;BMP280;68562;51.600;6.524;2023-08-20T14:25:00;1020.8;;;48.7
79148;BMP280;68562;51.600;6.524;2023-08-20T14:30:00;1020.7;;;48.4
79148;BMP280;68562;51.600;6.524;2023-08-20T14:35:00;1020.7;;;47.6
79148;BMP280;68562;51.600;6.524;2023-08-20T14:40:00;1020.7;;;47.5
79148;BMP280;68562;51.600;6.524;2023-08-20T14:45:00;1020.6;;;47.9
79148;BMP280;68562;51.600;6.524;2023-08-20T14:50:00;1020.6;;;48.4
79148;BMP280;68562;51.600;6.524;2023-08-20T14:55:00;1020.6;;;48.7
79148;BMP280;68562;51.600;6.524;2023-08-20T15:00:00;1020.5;;;48.9
79148;BMP280;68562;51.600;6.524;2023-08-20T15:05:00;1020.6;;;48.9
79148;BMP280;68562;51.600;6.524;2023-08-20T15:10:01;1020.6;;;48.7
79148;BMP280;68562;51.600;6.524;2023-08-20T15:15:00;1020.5;;;48.6
79148;BMP280;68562;51.600;6.524;2023-08-20T15:20:00;1020.5;;;48.5
79148;BMP280;68562;51.600;6.524;2023-08-20T15:25:00;1020.5;;;48.4
79148;BMP280;68562;51.600;6.524;2023-08-20T15:30:00;1020.5;;;48.4
79148;BMP280;68562;51.600;6.524;2023-08-20T15:35:00;1020.5;;;48.3
79148;BMP280;68562;51.600;6.524;2023-08-20T15:40:00;1020.6;;;48.2
79148;BMP280;68562;51.600;6.524;2023-08-20T15:45:00;1020.6;;;48.0
79148;BMP280;68562;51.600;6.524;2023-08-20T15:50:00;1020.6;;;47.9
79148;BMP280;68562;51.600;6.524;2023-08-20T15:55:00;1020.6;;;47.7
79148;BMP280;68562;51.600;6.524;2023-08-20T16:00:00;1020.6;;;46.7
79148;BMP280;68562;51.600;6.524;2023-08-20T16:05:00;1020.7;;;45.4
79148;BMP280;68562;51.600;6.524;2023-08-20T16:10:00;1020.7;;;43.9
79148;BMP280;68562;51.600;6.524;2023-08-20T16:15:00;1020.7;;;43.0
79148;BMP280;68562;51.600;6.524;2023-08-20T16:20:01;1020.7;;;43.2
79148;BMP280;68562;51.600;6.524;2023-08-20T16:25:00;1020.6;;;43.6
79148;BMP280;68562;51.600;6.524;2023-08-20T16:30:00;1020.7;;;43.9
79148;BMP280;68562;51.600;6.524;2023-08-20T16:35:00;1020.6;;;44.2
79148;BMP280;68562;51.600;6.524;2023-08-20T16:40:00;1020.6;;;44.4
79148;BMP280;68562;51.600;6.524;2023-08-20T16:45:00;1020.6;;;44.5
79148;BMP280;68562;51.600;6.524;2023-08-20T16:50:00;1020.6;;;44.5
79148;BMP280;68562;51.600;6.524;2023-08-20T16:55:01;1020.5;;;44.2
79148;BMP280;68562;51.600;6.524;2023-08-20T17:00:00;1020.5;;;43.6
79148;BMP280;68562;51.600;6.524;2023-08-20T17:05:00;1020.6;;;42.3
79148;BMP280;68562;51.600;6.524;2023-08-20T17:10:00;1020.6;;;40.9
79148;BMP280;68562;51.600;6.524;2023-08-20T17:15:01;1020.6;;;39.7
79148;BMP280;68562;51.600;6.524;2023-08-20T17:20:00;1020.6;;;38.8
79148;BMP280;68562;51.600;6.524;2023-08-20T17:25:00;1020.6;;;38.1
79148;BMP280;68562;51.600;6.524;2023-08-20T17:30:00;1020.6;;;37.5
79148;BMP280;68562;51.600;6.524;2023-08-20T17:35:00;1020.6;;;37.0
79148;BMP280;68562;51.600;6.524;2023-08-20T17:40:01;1020.6;;;36.5
79148;BMP280;68562;51.600;6.524;2023-08-20T17:45:00;1020.6;;;36.1
79148;BMP280;68562;51.600;6.524;2023-08-20T17:50:00;1020.6;;;35.7
79148;BMP280;68562;51.600;6.524;2023-08-20T17:55:00;1020.6;;;35.3
79148;BMP280;68562;51.600;6.524;2023-08-20T18:00:00;1020.6;;;35.0
79148;BMP280;68562;51.600;6.524;2023-08-20T18:05:00;1020.6;;;34.7
79148;BMP280;68562;51.600;6.524;2023-08-20T18:10:01;1020.6;;;34.4
79148;BMP280;68562;51.600;6.524;2023-08-20T18:15:00;1020.6;;;34.1
79148;BMP280;68562;51.600;6.524;2023-08-20T18:20:00;1020.6;;;33.8
79148;BMP280;68562;51.600;6.524;2023-08-20T18:25:00;1020.6;;;33.5
79148;BMP280;68562;51.600;6.524;2023-08-20T18:30:00;1020.6;;;33.3
79148;BMP280;68562;51.600;6.524;2023-08-20T18:35:00;1020.7;;;33.0
79148;BMP280;68562;51.600;6.524;2023-08-20T18:40:00;1020.7;;;32.8
79148;BMP280;68562;51.600;6.524;2023-08-20T18:45:00;1020.7;;;32.5
79148;BMP280;68562;51.600;6.524;2023-08-20T18:50:00;1020.7;;;32.2
79148;BMP280;68562;51.600;6.524;2023-08-20T18:55:00;1020.7;;;32.0
79148;BMP280;68562;51.600;6.524;2023-08-20T19:00:02;1020.8;;;31.8
79148;BMP280;68562;51.600;6.524;2023-08-20T19:05:00;1020.9;;;31.6
79148;BMP280;68562;51.600;6.524;2023-08-20T19:10:00;1021.0;;;31.4
79148;BMP280;68562;51.600;6.524;2023-08-20T19:15:00;1021.1;;;31.2
79148;BMP280;68562;51.600;6.524;2023-08-20T19:20:00;1021.2;;;31.0
79148;BMP280;68562;51.600;6.524;2023-08-20T19:25:00;1021.2;;;30.8
79148;BMP280;68562;51.600;6.524;2023-08-20T19:30:01;1021.2;;;30.6
79148;BMP280;68562;51.600;6.524;2023-08-20T19:35:00;1021.2;;;30.5
79148;BMP280;68562;51.600;6.524;2023-08-20T19:40:00;1021.2;;;30.3
79148;BMP280;68562;51.600;6.524;2023-08-20T19:45:00;1021.2;;;30.2
79148;BMP280;68562;51.600;6.524;2023-08-20T19:50:00;1021.2;;;30.1
79148;BMP280;68562;51.600;6.524;2023-08-20T19:55:00;1021.1;;;30.1
79148;BMP280;68562;51.600;6.524;2023-08-20T20:00:00;1021.2;;;30.0
79148;BMP280;68562;51.600;6.524;2023-08-20T20:05:00;1021.3;;;29.9
79148;BMP280;68562;51.600;6.524;2023-08-20T20:10:00;1021.3;;;29.8
79148;BMP280;68562;51.600;6.524;2023-08-20T20:15:00;1021.3;;;29.7
79148;BMP280;68562;51.600;6.524;2023-08-20T20:20:01;1021.3;;;29.6
79148;BMP280;68562;51.600;6.524;2023-08-20T20:25:00;1021.3;;;29.5
79148;BMP280;68562;51.600;6.524;2023-08-20T20:30:02;1021.3;;;29.3
79148;BMP280;68562;51.600;6.524;2023-08-20T20:35:00;1021.4;;;29.2
79148;BMP280;68562;51.600;6.524;2023-08-20T20:40:01;1021.5;;;29.1
79148;BMP280;68562;51.600;6.524;2023-08-20T20:45:00;1021.5;;;29.0
79148;BMP280;68562;51.600;6.524;2023-08-20T20:50:00;1021.5;;;29.0
79148;BMP280;68562;51.600;6.524;2023-08-20T20:55:00;1021.6;;;28.9
79148;BMP280;68562;51.600;6.524;2023-08-20T21:00:00;1021.6;;;28.9
79148;BMP280;68562;51.600;6.524;2023-08-20T21:05:00;1021.6;;;28.9
79148;BMP280;68562;51.600;6.524;2023-08-20T21:10:00;1021.6;;;28.9
79148;BMP280;68562;51.600;6.524;2023-08-20T21:15:00;1021.6;;;28.8
79148;BMP280;68562;51.600;6.524;2023-08-20T21:20:00;1021.7;;;28.8
79148;BMP280;68562;51.600;6.524;2023-08-20T21:25:00;1021.7;;;28.7
79148;BMP280;68562;51.600;6.524;2023-08-20T21:30:00;1021.7;;;28.7
79148;BMP280;68562;51.600;6.524;2023-08-20T21:35:00;1021.7;;;28.6
79148;BMP280;68562;51.600;6.524;2023-08-20T21:40:00;1021.7;;;28.5
79148;BMP280;68562;51.600;6.524;2023-08-20T21:45:00;1021.8;;;28.5
79148;BMP280;68562;51.600;6.524;2023-08-20T21:50:00;1021.8;;;28.4
79148;BMP280;68562;51.600;6.524;2023-08-20T21:55:00;1021.9;;;28.3
79148;BMP280;68562;51.600;6.524;2023-08-20T22:00:00;1021.8;;;28.3
79148;BMP280;68562;51.600;6.524;2023-08-20T22:05:11;1021.8;;;28.2
79148;BMP280;68562;51.600;6.524;2023-08-20T22:10:00;1021.9;;;28.2
79148;BMP280;68562;51.600;6.524;2023-08-20T22:15:00;1022.0;;;28.1
79148;BMP280;68562;51.600;6.524;2023-08-20T22:20:00;1021.9;;;28.1
79148;BMP280;68562;51.600;6.524;2023-08-20T22:25:00;1022.0;;;28.1
79148;BMP280;68562;51.600;6.524;2023-08-20T22:30:00;1022.0;;;28.1
79148;BMP280;68562;51.600;6.524;2023-08-20T22:35:00;1022.2;;;28.0
79148;BMP280;68562;51.600;6.524;2023-08-20T22:40:00;1022.1;;;28.0
79148;BMP280;68562;51.600;6.524;2023-08-20T22:45:00;1022.1;;;27.9
79148;BMP280;68562;51.600;6.524;2023-08-20T22:50:00;1022.0;;;27.9
79148;BMP280;68562;51.600;6.524;2023-08-20T22:55:00;1021.9;;;27.9
79148;BMP280;68562;51.600;6.524;2023-08-20T23:00:00;1022.0;;;27.9
79148;BMP280;68562;51.600;6.524;2023-08-20T23:05:00;1022.0;;;27.8
79148;BMP280;68562;51.600;6.524;2023-08-20T23:10:00;1022.0;;;27.7
79148;BMP280;68562;51.600;6.524;2023-08-20T23:15:00;1021.9;;;27.6
79148;BMP280;68562;51.600;6.524;2023-08-20T23:20:00;1021.8;;;27.5
79148;BMP280;68562;51.600;6.524;2023-08-20T23:25:00;1021.8;;;27.4
79148;BMP280;68562;51.600;6.524;2023-08-20T23:30:00;1021.8;;;27.3
79148;BMP280;68562;51.600;6.524;2023-08-20T23:35:00;1021.9;;;27.3
79148;BMP280;68562;51.600;6.524;2023-08-20T23:40:00;1021.9;;;27.2
79148;BMP280;68562;51.600;6.524;2023-08-20T23:45:00;1021.9;;;27.1
79148;BMP280;68562;51.600;6.524;2023-08-20T23:50:00;1021.9;;;27.1
79148;BMP280;68562;51.600;6.524;2023-08-20T23:55:00;1021.8;;;27.1
